Chehalis, Washington
Current Conditions -  °F | °C
As of 5:55 AM on Monday 24 Nov 2014 (Local Time) from KCLS Reporting Station
Overcast Overcast  
Wind Chill:   Ceiling: 1500
Heat Index:   Visibility: 10mi
Dew Point:   Wind: 6mph
Humidity: 93%   Direction: 200°SSW
Pressure: 30.35"   Gusts: NA
Location:  46.66°N, 122.96°W
Report Text: KCLS 241355Z AUTO 20005KT 10SM OVC015 06/05 A3035 RMK AO2
Loading
Personal Weather Stations






























Interactive Weather Map New forecast layout! Learn more

10-Day Weather Forecast

Advertisements
Track Severe Weather on mobile